createdAt,value
2017-07-29T00:01:51.053Z,5.27
2017-07-29T00:04:19.416Z,5.30
2017-07-29T00:06:47.783Z,5.77
2017-07-29T00:09:16.603Z,5.60
2017-07-29T00:11:44.967Z,5.83
2017-07-29T00:14:14.095Z,5.83
2017-07-29T00:16:43.365Z,5.73
2017-07-29T00:19:11.699Z,5.40
2017-07-29T00:21:40.036Z,5.63
2017-07-29T00:24:08.717Z,6.00
2017-07-29T00:26:37.064Z,5.13
2017-07-29T00:29:05.410Z,5.70
2017-07-29T00:31:34.359Z,6.53
2017-07-29T00:34:02.716Z,6.63
2017-07-29T00:36:31.077Z,5.83
2017-07-29T00:38:59.740Z,6.53
2017-07-29T00:41:28.089Z,6.03
2017-07-29T00:43:56.463Z,6.30
2017-07-29T00:46:25.146Z,5.30
2017-07-29T00:48:53.524Z,6.00
2017-07-29T00:51:21.912Z,5.80
2017-07-29T00:53:50.745Z,5.80
2017-07-29T00:56:19.103Z,5.47
2017-07-29T00:58:47.453Z,6.67
2017-07-29T01:01:16.306Z,5.57
2017-07-29T01:03:44.649Z,5.93
2017-07-29T01:06:13.006Z,6.53
2017-07-29T01:08:41.684Z,5.80
2017-07-29T01:11:10.049Z,6.40
2017-07-29T01:13:38.407Z,6.63
2017-07-29T01:16:07.089Z,5.20
2017-07-29T01:18:36.229Z,5.73
2017-07-29T01:21:04.599Z,6.50
2017-07-29T01:23:33.463Z,5.53
2017-07-29T01:26:01.811Z,5.47
2017-07-29T01:28:30.926Z,7.47
2017-07-29T01:31:00.318Z,5.87
2017-07-29T01:33:28.671Z,5.53
2017-07-29T01:35:57.060Z,7.13
2017-07-29T01:38:25.965Z,5.70
2017-07-29T01:40:54.329Z,5.83
2017-07-29T01:43:22.676Z,5.80
2017-07-29T01:45:51.407Z,5.67
2017-07-29T01:48:20.559Z,5.77
2017-07-29T01:50:48.926Z,6.27
2017-07-29T01:53:17.720Z,6.17
2017-07-29T01:55:46.064Z,5.47
2017-07-29T01:58:14.936Z,5.60
2017-07-29T02:00:43.891Z,5.70
2017-07-29T02:03:12.242Z,6.20
2017-07-29T02:05:40.570Z,6.03
2017-07-29T02:08:09.194Z,5.60
2017-07-29T02:10:37.530Z,5.53
2017-07-29T02:13:05.880Z,6.40
2017-07-29T02:15:34.665Z,5.73
2017-07-29T02:18:03.016Z,6.47
2017-07-29T02:20:32.117Z,6.30
2017-07-29T02:23:01.631Z,6.00
2017-07-29T02:25:29.989Z,6.43
2017-07-29T02:27:58.357Z,5.50
2017-07-29T02:30:27.191Z,4.90
2017-07-29T02:32:55.547Z,5.73
2017-07-29T02:35:24.665Z,5.47
2017-07-29T02:37:53.487Z,5.23
2017-07-29T02:40:21.867Z,5.00
2017-07-29T02:42:50.258Z,4.77
2017-07-29T02:45:18.952Z,5.70
2017-07-29T02:47:47.320Z,4.97
2017-07-29T02:50:15.693Z,4.80
2017-07-29T02:52:44.554Z,6.20
2017-07-29T02:55:12.908Z,5.47
2017-07-29T02:57:41.249Z,5.50
2017-07-29T03:00:09.906Z,5.57
2017-07-29T03:02:38.248Z,5.67
2017-07-29T03:05:06.587Z,6.47
2017-07-29T03:07:36.940Z,5.83
2017-07-29T03:10:05.290Z,5.47
2017-07-29T03:12:33.665Z,5.97
2017-07-29T03:15:02.294Z,6.57
2017-07-29T03:17:30.635Z,6.70
2017-07-29T03:19:59.011Z,6.67
2017-07-29T03:22:27.968Z,5.37
2017-07-29T03:24:56.315Z,6.00
2017-07-29T03:27:24.666Z,7.27
2017-07-29T03:29:53.822Z,6.27
2017-07-29T03:32:22.141Z,6.50
2017-07-29T03:34:50.478Z,6.00
2017-07-29T03:37:19.130Z,5.33
2017-07-29T03:39:47.487Z,6.60
2017-07-29T03:42:15.851Z,6.70
2017-07-29T03:44:44.532Z,6.50
2017-07-29T03:47:12.865Z,5.73
2017-07-29T03:49:41.235Z,5.90
2017-07-29T03:52:09.922Z,5.90
2017-07-29T03:54:38.298Z,6.10
2017-07-29T03:57:07.452Z,7.50
2017-07-29T03:59:36.114Z,6.83
2017-07-29T04:02:04.470Z,7.50
2017-07-29T04:04:32.825Z,7.03
2017-07-29T04:07:01.478Z,6.60
2017-07-29T04:09:29.822Z,6.40
2017-07-29T04:11:58.938Z,6.17
2017-07-29T04:14:27.957Z,7.33
2017-07-29T04:16:56.280Z,7.50
2017-07-29T04:19:24.642Z,6.47
2017-07-29T04:21:53.324Z,6.87
2017-07-29T04:24:21.666Z,6.00
2017-07-29T04:26:49.997Z,6.93
2017-07-29T04:29:18.614Z,7.03
2017-07-29T04:31:47.076Z,7.30
2017-07-29T04:34:15.427Z,6.63
2017-07-29T04:36:44.504Z,7.60
2017-07-29T04:39:12.858Z,7.73
2017-07-29T04:41:41.202Z,6.70
2017-07-29T04:44:09.843Z,7.90
2017-07-29T04:46:38.199Z,8.03
2017-07-29T04:49:06.556Z,7.20
2017-07-29T04:51:36.191Z,7.37
2017-07-29T04:54:04.522Z,7.80
2017-07-29T04:56:32.888Z,8.17
2017-07-29T04:59:01.657Z,8.67
2017-07-29T05:01:30.000Z,8.50
2017-07-29T05:03:58.350Z,7.57
2017-07-29T05:06:27.260Z,7.33
2017-07-29T05:08:55.703Z,7.57
2017-07-29T05:11:24.116Z,8.20
2017-07-29T05:13:53.623Z,7.00
2017-07-29T05:16:22.719Z,7.37
2017-07-29T05:18:51.817Z,7.77
2017-07-29T05:21:21.439Z,7.97
2017-07-29T05:23:49.769Z,7.70
2017-07-29T05:26:18.123Z,8.07
2017-07-29T05:28:46.903Z,8.63
2017-07-29T05:31:15.266Z,7.40
2017-07-29T05:33:43.640Z,7.63
2017-07-29T05:36:12.267Z,7.77
2017-07-29T05:38:40.614Z,7.80
2017-07-29T05:41:08.964Z,7.57
2017-07-29T05:43:38.703Z,7.47
2017-07-29T05:46:07.052Z,7.33
2017-07-29T05:48:35.406Z,7.80
2017-07-29T05:51:04.029Z,7.70
2017-07-29T05:53:32.359Z,7.67
2017-07-29T05:56:00.731Z,7.57
2017-07-29T05:58:29.360Z,7.30
2017-07-29T06:00:58.492Z,7.93
2017-07-29T06:03:26.821Z,7.53
2017-07-29T06:05:55.878Z,8.40
2017-07-29T06:08:24.297Z,6.67
2017-07-29T06:10:52.636Z,7.73
2017-07-29T06:13:21.409Z,7.07
2017-07-29T06:15:49.744Z,7.40
2017-07-29T06:18:18.091Z,7.60
2017-07-29T06:20:46.717Z,6.60
2017-07-29T06:23:15.073Z,7.40
2017-07-29T06:25:43.425Z,6.97
2017-07-29T06:28:12.263Z,7.50
2017-07-29T06:30:41.506Z,6.80
2017-07-29T06:33:09.846Z,6.20
2017-07-29T06:35:38.769Z,6.87
2017-07-29T06:38:07.114Z,6.50
2017-07-29T06:40:35.469Z,6.40
2017-07-29T06:43:04.098Z,6.83
2017-07-29T06:45:33.354Z,7.17
2017-07-29T06:48:01.700Z,6.73
2017-07-29T06:50:30.700Z,7.10
2017-07-29T06:52:59.051Z,6.87
2017-07-29T06:55:27.428Z,7.10
2017-07-29T06:57:56.133Z,5.93
2017-07-29T07:00:24.473Z,7.70
2017-07-29T07:02:52.830Z,6.50
2017-07-29T07:05:21.622Z,7.00
2017-07-29T07:07:49.949Z,6.57
2017-07-29T07:10:18.302Z,5.43
2017-07-29T07:12:47.069Z,6.27
2017-07-29T07:15:15.421Z,5.97
2017-07-29T07:17:43.817Z,5.90
2017-07-29T07:20:12.490Z,6.00
2017-07-29T07:22:40.847Z,6.40
2017-07-29T07:25:09.211Z,5.30
2017-07-29T07:27:38.132Z,5.73
2017-07-29T07:30:06.482Z,5.80
2017-07-29T07:32:35.605Z,6.10
2017-07-29T07:35:04.714Z,5.87
2017-07-29T07:37:33.079Z,5.27
2017-07-29T07:40:01.434Z,6.10
2017-07-29T07:42:30.219Z,4.97
2017-07-29T07:44:58.578Z,5.70
2017-07-29T07:47:26.927Z,5.10
2017-07-29T07:49:55.891Z,5.00
2017-07-29T07:52:24.264Z,5.20
2017-07-29T07:54:52.581Z,5.07
2017-07-29T07:57:22.115Z,5.50
2017-07-29T07:59:50.434Z,4.90
2017-07-29T08:02:18.774Z,4.90
2017-07-29T08:04:47.789Z,4.60
2017-07-29T08:07:16.107Z,5.07
2017-07-29T08:09:44.500Z,4.47
2017-07-29T08:12:13.240Z,5.53
2017-07-29T08:14:41.615Z,5.73
2017-07-29T08:17:09.956Z,5.13
2017-07-29T08:19:39.110Z,5.00
2017-07-29T08:22:07.468Z,5.20
2017-07-29T08:24:36.578Z,4.90
2017-07-29T08:27:05.372Z,4.97
2017-07-29T08:29:33.737Z,4.70
2017-07-29T08:32:02.073Z,4.47
2017-07-29T08:34:32.103Z,4.07
2017-07-29T08:37:01.897Z,5.00
2017-07-29T08:39:30.231Z,4.60
2017-07-29T08:41:59.159Z,4.13
2017-07-29T08:44:27.614Z,4.70
2017-07-29T08:46:55.981Z,4.80
2017-07-29T08:49:24.997Z,4.63
2017-07-29T08:51:53.382Z,4.73
2017-07-29T08:54:22.651Z,3.70
2017-07-29T08:56:51.262Z,4.50
2017-07-29T08:59:20.302Z,4.80
2017-07-29T09:01:48.678Z,3.53
2017-07-29T09:04:17.446Z,3.97
2017-07-29T09:06:45.848Z,4.43
2017-07-29T09:09:14.203Z,4.10
2017-07-29T09:11:42.958Z,4.13
2017-07-29T09:14:11.304Z,4.67
2017-07-29T09:16:40.547Z,4.37
2017-07-29T09:19:09.197Z,3.90
2017-07-29T09:21:37.563Z,5.60
2017-07-29T09:24:05.907Z,3.87
2017-07-29T09:26:35.274Z,3.77
2017-07-29T09:29:03.652Z,3.70
2017-07-29T09:31:32.017Z,4.40
2017-07-29T09:34:00.922Z,3.60
2017-07-29T09:36:29.271Z,3.90
2017-07-29T09:38:57.670Z,3.27
2017-07-29T09:41:26.357Z,4.17
2017-07-29T09:43:54.701Z,4.10
2017-07-29T09:46:23.060Z,4.00
2017-07-29T09:48:51.919Z,3.60
2017-07-29T09:51:20.286Z,3.57
2017-07-29T09:53:48.635Z,4.53
2017-07-29T09:56:17.468Z,4.10
2017-07-29T09:58:46.546Z,4.23
2017-07-29T10:01:14.902Z,3.90
2017-07-29T10:03:43.596Z,4.23
2017-07-29T10:06:11.936Z,4.60
2017-07-29T10:08:40.328Z,4.03
2017-07-29T10:11:09.520Z,3.93
2017-07-29T10:13:37.883Z,3.97
2017-07-29T10:16:06.262Z,4.50
2017-07-29T10:18:34.879Z,4.90
2017-07-29T10:21:03.244Z,4.57
2017-07-29T10:23:31.575Z,4.83
2017-07-29T10:26:01.085Z,4.87
2017-07-29T10:28:29.436Z,4.63
2017-07-29T10:30:58.015Z,5.53
2017-07-29T10:33:27.183Z,4.00
2017-07-29T10:35:55.542Z,4.10
2017-07-29T10:38:24.579Z,4.30
2017-07-29T10:40:53.216Z,4.87
2017-07-29T10:43:21.600Z,4.27
2017-07-29T10:45:49.965Z,4.73
2017-07-29T10:48:18.789Z,4.43
2017-07-29T10:50:47.169Z,4.10
2017-07-29T10:53:15.540Z,4.30
2017-07-29T10:55:44.396Z,4.47
2017-07-29T10:58:12.810Z,4.10
2017-07-29T11:00:41.176Z,3.90
2017-07-29T11:03:09.959Z,4.70
2017-07-29T11:05:39.108Z,4.83
2017-07-29T11:08:07.463Z,4.40
2017-07-29T11:10:36.213Z,5.47
2017-07-29T11:13:04.647Z,5.60
2017-07-29T11:15:33.009Z,5.53
2017-07-29T11:18:01.922Z,5.13
2017-07-29T11:20:30.280Z,5.07
2017-07-29T11:22:58.644Z,5.13
2017-07-29T11:25:27.506Z,5.43
2017-07-29T11:27:55.851Z,6.20
2017-07-29T11:30:24.978Z,5.77
2017-07-29T11:32:53.617Z,5.97
2017-07-29T11:35:21.972Z,6.53
2017-07-29T11:37:50.378Z,6.37
2017-07-29T11:40:20.286Z,6.83
2017-07-29T11:42:48.638Z,6.90
2017-07-29T11:45:17.322Z,6.87
2017-07-29T11:47:46.107Z,8.80
2017-07-29T11:50:14.480Z,7.50
2017-07-29T11:52:42.820Z,7.93
2017-07-29T11:55:11.603Z,6.57
2017-07-29T11:57:39.946Z,6.23
2017-07-29T12:00:08.282Z,7.40
2017-07-29T12:02:37.168Z,6.40
2017-07-29T12:05:05.531Z,7.03
2017-07-29T12:07:33.884Z,6.97
2017-07-29T12:10:02.644Z,6.50
2017-07-29T12:12:31.019Z,6.93
2017-07-29T12:14:59.371Z,6.50
2017-07-29T12:17:29.017Z,5.80
2017-07-29T12:19:57.390Z,6.13
2017-07-29T12:22:25.760Z,6.03
2017-07-29T12:24:54.674Z,6.20
2017-07-29T12:27:23.028Z,5.67
2017-07-29T12:29:51.400Z,5.80
2017-07-29T12:32:20.072Z,5.40
2017-07-29T12:34:48.426Z,5.50
2017-07-29T12:37:16.782Z,5.60
2017-07-29T12:39:46.082Z,5.43
2017-07-29T12:42:14.461Z,6.30
2017-07-29T12:44:42.866Z,5.60
2017-07-29T12:47:11.849Z,5.40
2017-07-29T12:49:40.204Z,4.87
2017-07-29T12:52:08.557Z,4.93
2017-07-29T12:54:37.370Z,4.90
2017-07-29T12:57:05.734Z,4.73
2017-07-29T12:59:34.082Z,4.87
2017-07-29T13:02:02.807Z,5.37
2017-07-29T13:04:31.161Z,5.90
2017-07-29T13:06:59.551Z,4.67
2017-07-29T13:09:28.382Z,5.50
2017-07-29T13:11:56.777Z,4.90
2017-07-29T13:14:25.136Z,5.00
2017-07-29T13:16:54.002Z,5.00
2017-07-29T13:19:22.417Z,6.20
2017-07-29T13:21:50.768Z,6.13
2017-07-29T13:24:19.585Z,5.90
2017-07-29T13:26:47.946Z,6.20
2017-07-29T13:29:16.298Z,6.33
2017-07-29T13:31:45.433Z,6.73
2017-07-29T13:34:13.803Z,6.00
2017-07-29T13:36:42.155Z,6.37
2017-07-29T13:39:10.858Z,5.70
2017-07-29T13:41:39.210Z,6.10
2017-07-29T13:44:07.618Z,6.20
2017-07-29T13:46:36.500Z,5.63
2017-07-29T13:49:05.298Z,6.60
2017-07-29T13:51:33.689Z,6.37
2017-07-29T13:54:02.659Z,5.90
2017-07-29T13:56:31.019Z,5.57
2017-07-29T13:58:59.388Z,8.20
2017-07-29T14:01:28.041Z,6.40
2017-07-29T14:03:56.430Z,6.50
2017-07-29T14:06:24.782Z,7.17
2017-07-29T14:08:53.684Z,5.53
2017-07-29T14:11:22.048Z,6.27
2017-07-29T14:13:50.381Z,6.30
2017-07-29T14:16:19.202Z,5.97
2017-07-29T14:18:47.549Z,6.33
2017-07-29T14:21:15.947Z,6.93
2017-07-29T14:23:45.577Z,5.30
2017-07-29T14:26:13.925Z,5.50
2017-07-29T14:28:42.528Z,5.40
2017-07-29T14:31:11.184Z,4.87
2017-07-29T14:33:39.546Z,4.30
2017-07-29T14:36:07.916Z,3.60
2017-07-29T14:38:36.878Z,4.80
2017-07-29T14:41:05.235Z,3.10
2017-07-29T14:43:33.599Z,3.17
2017-07-29T14:46:02.347Z,2.90
2017-07-29T14:48:37.392Z,3.00
2017-07-29T14:51:06.106Z,2.33
2017-07-29T14:53:34.460Z,2.30
2017-07-29T14:56:02.827Z,2.60
2017-07-29T14:58:32.108Z,3.37
2017-07-29T15:01:00.447Z,2.60
2017-07-29T15:03:29.525Z,3.50
2017-07-29T15:05:58.373Z,2.80
2017-07-29T15:08:26.736Z,2.90
2017-07-29T15:10:55.833Z,3.40
2017-07-29T15:13:24.457Z,3.07
2017-07-29T15:15:52.870Z,3.30
2017-07-29T15:18:21.221Z,2.80
2017-07-29T15:20:49.953Z,3.07
2017-07-29T15:23:19.082Z,2.60
2017-07-29T15:25:47.460Z,2.43
2017-07-29T15:28:16.229Z,2.60
2017-07-29T15:30:45.350Z,2.97
2017-07-29T15:33:13.726Z,2.80
2017-07-29T15:35:42.613Z,3.37
2017-07-29T15:38:10.977Z,2.30
2017-07-29T15:40:39.331Z,3.73
2017-07-29T15:43:08.479Z,2.77
2017-07-29T15:45:36.850Z,2.60
2017-07-29T15:48:05.222Z,2.30
2017-07-29T15:50:33.907Z,2.00
2017-07-29T15:53:02.291Z,3.23
2017-07-29T15:55:30.686Z,2.50
2017-07-29T15:57:59.570Z,2.33
2017-07-29T16:00:27.930Z,2.93
2017-07-29T16:02:56.335Z,2.50
2017-07-29T16:05:25.306Z,2.40
2017-07-29T16:07:53.668Z,2.80
2017-07-29T16:10:22.038Z,2.50
2017-07-29T16:12:50.654Z,2.60
2017-07-29T16:15:19.014Z,2.97
2017-07-29T16:17:48.140Z,2.90
2017-07-29T16:20:16.854Z,3.33
2017-07-29T16:22:45.248Z,2.53
2017-07-29T16:25:13.615Z,3.00
2017-07-29T16:27:42.557Z,2.70
2017-07-29T16:30:10.944Z,3.17
2017-07-29T16:32:39.318Z,2.60
2017-07-29T16:35:08.202Z,2.40
2017-07-29T16:37:36.552Z,3.00
2017-07-29T16:40:05.682Z,3.70
2017-07-29T16:42:34.334Z,4.47
2017-07-29T16:45:02.674Z,4.30
2017-07-29T16:47:31.028Z,4.40
2017-07-29T16:49:59.982Z,4.63
2017-07-29T16:52:28.356Z,3.37
2017-07-29T16:54:56.714Z,3.53
2017-07-29T16:57:25.426Z,3.93
2017-07-29T16:59:53.804Z,3.47
2017-07-29T17:02:22.167Z,3.10
2017-07-29T17:04:50.787Z,3.40
2017-07-29T17:07:19.121Z,3.13
2017-07-29T17:09:47.519Z,3.40
2017-07-29T17:12:16.357Z,3.60
2017-07-29T17:14:44.727Z,3.40
2017-07-29T17:17:13.091Z,3.60
2017-07-29T17:19:42.743Z,3.73
2017-07-29T17:22:11.115Z,3.60
2017-07-29T17:24:39.460Z,3.93
2017-07-29T17:27:08.666Z,3.50
2017-07-29T17:29:37.783Z,3.63
2017-07-29T17:32:06.155Z,4.23
2017-07-29T17:34:35.316Z,4.30
2017-07-29T17:37:03.668Z,4.27
2017-07-29T17:39:32.019Z,4.30
2017-07-29T17:42:00.896Z,5.03
2017-07-29T17:44:29.280Z,5.00
2017-07-29T17:46:57.652Z,4.53
2017-07-29T17:49:26.335Z,4.40
2017-07-29T17:51:54.702Z,4.97
2017-07-29T17:54:23.054Z,5.00
2017-07-29T17:56:52.000Z,5.50
2017-07-29T17:59:20.342Z,5.17
2017-07-29T18:01:48.712Z,5.40
2017-07-29T18:04:17.407Z,5.33
2017-07-29T18:06:45.747Z,6.13
2017-07-29T18:09:14.092Z,6.13
2017-07-29T18:11:43.017Z,5.50
2017-07-29T18:14:11.389Z,7.27
2017-07-29T18:16:39.754Z,7.43
2017-07-29T18:19:08.532Z,6.10
2017-07-29T18:21:36.928Z,6.20
2017-07-29T18:24:05.287Z,5.93
2017-07-29T18:26:33.935Z,6.30
2017-07-29T18:29:03.052Z,5.57
2017-07-29T18:31:31.422Z,7.03
2017-07-29T18:34:00.288Z,5.90
2017-07-29T18:36:28.651Z,6.43
2017-07-29T18:38:57.010Z,5.63
2017-07-29T18:41:25.987Z,5.73
2017-07-29T18:43:55.139Z,5.80
2017-07-29T18:46:23.548Z,6.27
2017-07-29T18:48:52.161Z,6.40
2017-07-29T18:51:20.497Z,5.73
2017-07-29T18:53:48.829Z,7.33
2017-07-29T18:56:17.556Z,5.80
2017-07-29T18:58:45.889Z,7.00
2017-07-29T19:01:14.239Z,6.57
2017-07-29T19:03:44.075Z,6.53
2017-07-29T19:06:12.419Z,6.30
2017-07-29T19:08:40.807Z,6.90
2017-07-29T19:11:09.518Z,7.00
2017-07-29T19:13:37.862Z,6.90
2017-07-29T19:16:06.182Z,6.73
2017-07-29T19:18:34.822Z,7.10
2017-07-29T19:21:03.172Z,8.50
2017-07-29T19:23:31.561Z,10.20
2017-07-29T19:26:01.171Z,9.00
2017-07-29T19:28:29.540Z,8.53
2017-07-29T19:30:57.888Z,9.00
2017-07-29T19:33:26.536Z,8.27
2017-07-29T19:35:54.881Z,8.60
2017-07-29T19:38:23.229Z,7.63
2017-07-29T19:40:51.947Z,7.80
2017-07-29T19:43:20.318Z,8.30
2017-07-29T19:45:48.678Z,9.23
2017-07-29T19:48:17.984Z,9.53
2017-07-29T19:50:46.344Z,9.50
2017-07-29T19:53:15.476Z,9.40
2017-07-29T19:55:44.162Z,8.60
2017-07-29T19:58:12.538Z,9.40
2017-07-29T20:00:40.905Z,9.73
2017-07-29T20:03:09.719Z,9.53
2017-07-29T20:05:38.089Z,8.73
2017-07-29T20:08:06.459Z,9.03
2017-07-29T20:10:35.338Z,8.97
2017-07-29T20:13:03.693Z,8.87
2017-07-29T20:15:32.067Z,9.40
2017-07-29T20:18:00.975Z,9.40
2017-07-29T20:20:29.320Z,9.57
2017-07-29T20:22:57.687Z,9.30
2017-07-29T20:25:26.439Z,11.00
2017-07-29T20:27:54.802Z,9.33
2017-07-29T20:30:23.149Z,8.90
2017-07-29T20:32:52.107Z,8.70
2017-07-29T20:35:20.474Z,9.13
2017-07-29T20:37:48.829Z,9.70
2017-07-29T20:40:17.608Z,9.23
2017-07-29T20:42:45.971Z,9.70
2017-07-29T20:45:14.443Z,11.40
2017-07-29T20:47:43.423Z,11.53
2017-07-29T20:50:11.899Z,11.77
2017-07-29T20:52:40.288Z,10.87
2017-07-29T20:55:09.289Z,9.77
2017-07-29T20:57:37.656Z,10.77
2017-07-29T21:00:06.491Z,12.37
2017-07-29T21:02:35.938Z,11.23
2017-07-29T21:05:04.287Z,10.43
2017-07-29T21:07:32.641Z,10.77
2017-07-29T21:10:01.395Z,11.60
2017-07-29T21:12:29.748Z,10.47
2017-07-29T21:14:58.107Z,11.03
2017-07-29T21:17:26.784Z,11.37
2017-07-29T21:19:55.148Z,11.90
2017-07-29T21:22:23.534Z,11.77
2017-07-29T21:24:52.303Z,11.33
2017-07-29T21:27:20.633Z,11.30
2017-07-29T21:29:49.002Z,12.50
2017-07-29T21:32:17.698Z,11.90
2017-07-29T21:34:46.057Z,10.80
2017-07-29T21:37:15.219Z,11.10
2017-07-29T21:39:44.605Z,12.40
2017-07-29T21:42:12.983Z,11.60
2017-07-29T21:44:41.349Z,12.03
2017-07-29T21:47:10.022Z,11.13
2017-07-29T21:49:38.389Z,10.67
2017-07-29T21:52:07.043Z,11.87
2017-07-29T21:54:35.771Z,10.83
2017-07-29T21:57:04.136Z,10.00
2017-07-29T21:59:32.488Z,8.50
2017-07-29T22:02:01.345Z,9.13
2017-07-29T22:04:29.700Z,9.00
2017-07-29T22:06:58.064Z,8.60
2017-07-29T22:09:26.757Z,9.50
2017-07-29T22:11:55.111Z,8.63
2017-07-29T22:14:23.495Z,9.73
2017-07-29T22:16:52.194Z,10.37
2017-07-29T22:19:20.548Z,11.00
2017-07-29T22:21:48.890Z,10.50
2017-07-29T22:24:17.816Z,9.77
2017-07-29T22:26:46.174Z,10.23
2017-07-29T22:29:14.529Z,10.10
2017-07-29T22:31:43.155Z,10.60
2017-07-29T22:34:11.517Z,10.70
2017-07-29T22:36:39.892Z,10.77
2017-07-29T22:39:08.565Z,11.60
2017-07-29T22:41:36.943Z,11.67
2017-07-29T22:44:05.319Z,11.13
2017-07-29T22:46:35.146Z,11.50
2017-07-29T22:49:04.314Z,10.77
2017-07-29T22:51:32.698Z,10.53
2017-07-29T22:54:01.713Z,10.30
2017-07-29T22:56:30.726Z,10.40
2017-07-29T22:58:59.116Z,10.90
2017-07-29T23:01:27.752Z,10.20
2017-07-29T23:03:56.150Z,10.27
2017-07-29T23:06:24.498Z,10.17
2017-07-29T23:08:54.236Z,10.60
2017-07-29T23:11:22.616Z,9.47
2017-07-29T23:13:50.978Z,8.70
2017-07-29T23:16:19.647Z,10.20
2017-07-29T23:18:47.997Z,8.43
2017-07-29T23:21:16.346Z,9.37
2017-07-29T23:23:45.333Z,8.33
2017-07-29T23:26:13.754Z,8.33
2017-07-29T23:28:42.890Z,8.73
2017-07-29T23:31:12.011Z,8.83
2017-07-29T23:33:40.390Z,9.10
2017-07-29T23:36:08.747Z,8.00
2017-07-29T23:38:37.369Z,9.40
2017-07-29T23:41:05.726Z,9.10
2017-07-29T23:43:34.080Z,8.37
2017-07-29T23:46:04.290Z,8.87
2017-07-29T23:48:32.620Z,8.43
2017-07-29T23:51:00.986Z,8.90
2017-07-29T23:53:30.027Z,7.60
2017-07-29T23:55:58.374Z,8.27
2017-07-29T23:58:26.728Z,8.30
